El Arish, Egypt
Current Conditions -  °F | °C
As of 1:00 PM on Wednesday 28 Jan 2015 (Local Time) from HEAR Reporting Station
Scattered Clouds Scattered Clouds  
Wind Chill: 66°   Ceiling: Unl
Heat Index: 66°   Visibility: 6mi
Dew Point: 54°   Wind: 8mph
Humidity: 64%   Direction: 290°WNW
Pressure: 29.94"   Gusts: NA
Location:  31.13°N, 33.8°E
Report Text: HEAR 281100Z 29007KT 9999 SCT020 19/12 Q1014 NOSIG
Loading
Personal Weather Stations






























Interactive Weather Map New forecast layout! Learn more

10-Day Weather Forecast

Advertisements
Track Severe Weather on mobile